Archival Weather

Luke Afb

Glendale, Arizona (KLUF)

Report from: Friday, April 19, 2024 8:55 AM MST
Current time: Monday, June 24, 2024 4:06 AM MST

Current weather – Weather history – Daily summaries
Weather forecast

Temperature24.1°C (75.4°F)
Dew point1.0°C (33.8°F)
Winds 3 kts (1.5 m/s, 3.5 mph) East-Northeast (60°)
Visibility10 mi. (16.1 km)
Clouds Sky clear
Altimeter29.86 in.Hg (1011 mB)
Relative humidity22 %
Density altitude1,268 ft. (386 m)
Sea-level pressure101.0 kPa (1010 mB, 29.83 in.Hg)
Remarks Fully automated report
System requires maintenance
Automated weather observing station with precipitation discriminator
Flight conditions Visual Meteorological Conditions
Raw dataKLUF 191555Z AUTO 06003KT 10SM CLR 24/01 A2986 RMK AO2 SLP100 T02410010 $
An error has occurred. This application may no longer respond until reloaded. Reload 🗙